createdAt,value
2018-05-16T00:00:11.463Z,100411.72
2018-05-16T00:01:13.964Z,100412.30
2018-05-16T00:02:16.482Z,100409.53
2018-05-16T00:03:18.972Z,100406.76
2018-05-16T00:04:21.466Z,100409.13
2018-05-16T00:05:23.966Z,100410.70
2018-05-16T00:06:26.442Z,100410.11
2018-05-16T00:07:28.911Z,100411.50
2018-05-16T00:08:31.401Z,100409.31
2018-05-16T00:09:33.915Z,100416.23
2018-05-16T00:10:36.400Z,100409.31
2018-05-16T00:11:38.907Z,100413.87
2018-05-16T00:12:41.416Z,100419.02
2018-05-16T00:13:43.909Z,100416.05
2018-05-16T00:14:46.424Z,100415.66
2018-05-16T00:15:48.924Z,100419.63
2018-05-16T00:16:51.402Z,100420.61
2018-05-16T00:17:53.889Z,100420.03
2018-05-16T00:18:56.373Z,100412.48
2018-05-16T00:19:58.865Z,100414.27
2018-05-16T00:21:01.347Z,100422.58
2018-05-16T00:22:03.836Z,100417.44
2018-05-16T00:23:06.339Z,100417.84
2018-05-16T00:24:08.847Z,100422.58
2018-05-16T00:25:11.360Z,100418.83
2018-05-16T00:26:13.853Z,100425.94
2018-05-16T00:27:16.331Z,100429.11
2018-05-16T00:28:18.825Z,100425.36
2018-05-16T00:29:21.324Z,100419.41
2018-05-16T00:30:23.835Z,100428.13
2018-05-16T00:31:26.321Z,100423.17
2018-05-16T00:32:28.828Z,100426.34
2018-05-16T00:33:31.326Z,100428.13
2018-05-16T00:34:33.825Z,100425.72
2018-05-16T00:35:36.348Z,100426.52
2018-05-16T00:36:38.863Z,100423.17
2018-05-16T00:37:41.338Z,100423.79
2018-05-16T00:38:43.848Z,100427.77
2018-05-16T00:39:46.330Z,100427.41
2018-05-16T00:40:48.852Z,100431.38
2018-05-16T00:41:51.322Z,100432.00
2018-05-16T00:42:53.813Z,100432.00
2018-05-16T00:43:56.288Z,100430.87
2018-05-16T00:44:58.773Z,100433.86
2018-05-16T00:46:01.273Z,100437.43
2018-05-16T00:47:03.773Z,100434.66
2018-05-16T00:48:06.246Z,100437.66
2018-05-16T00:49:08.741Z,100436.27
2018-05-16T00:50:11.230Z,100441.23
2018-05-16T00:51:25.710Z,100446.37
2018-05-16T00:52:28.223Z,100441.23
2018-05-16T00:53:30.737Z,100443.02
2018-05-16T00:54:33.238Z,100442.61
2018-05-16T00:55:35.707Z,100440.09
2018-05-16T00:56:38.245Z,100446.04
2018-05-16T00:57:40.718Z,100442.86
2018-05-16T00:58:43.199Z,100445.64
2018-05-16T00:59:45.667Z,100445.64
2018-05-16T01:00:48.152Z,100450.59
2018-05-16T01:01:50.665Z,100450.59
2018-05-16T01:02:53.157Z,100446.84
2018-05-16T01:03:55.642Z,100446.44
2018-05-16T01:04:58.119Z,100445.86
2018-05-16T01:06:00.590Z,100445.45
2018-05-16T01:07:03.093Z,100446.30
2018-05-16T01:08:05.581Z,100448.48
2018-05-16T01:09:08.070Z,100447.14
2018-05-16T01:10:10.543Z,100461.00
2018-05-16T01:11:13.047Z,100459.83
2018-05-16T01:12:15.572Z,100464.61
2018-05-16T01:13:18.053Z,100457.69
2018-05-16T01:14:20.550Z,100468.99
2018-05-16T01:15:23.045Z,100467.20
2018-05-16T01:16:25.627Z,100470.20
2018-05-16T01:17:28.137Z,100467.61
2018-05-16T01:18:30.651Z,100472.93
2018-05-16T01:19:33.131Z,100481.43
2018-05-16T01:20:35.632Z,100484.02
2018-05-16T01:21:38.121Z,100481.25
2018-05-16T01:22:40.625Z,100481.25
2018-05-16T01:23:44.021Z,100473.52
2018-05-16T01:24:46.493Z,100476.11
2018-05-16T01:25:48.981Z,100481.06
2018-05-16T01:26:51.469Z,100476.51
2018-05-16T01:27:53.992Z,100474.14
2018-05-16T01:28:56.495Z,100471.36
2018-05-16T01:29:59.004Z,100473.15
2018-05-16T01:31:01.485Z,100472.57
2018-05-16T01:32:03.966Z,100476.91
2018-05-16T01:33:06.476Z,100480.08
2018-05-16T01:34:08.955Z,100484.42
2018-05-16T01:35:11.455Z,100478.30
2018-05-16T01:36:13.951Z,100490.77
2018-05-16T01:37:16.446Z,100487.20
2018-05-16T01:38:18.967Z,100492.73
2018-05-16T01:39:21.450Z,100496.72
2018-05-16T01:40:23.956Z,100497.30
2018-05-16T01:41:26.445Z,100502.44
2018-05-16T01:42:28.941Z,100509.38
2018-05-16T01:43:31.461Z,100510.54
2018-05-16T01:44:33.960Z,100511.52
2018-05-16T01:45:36.430Z,100514.87
2018-05-16T01:46:38.906Z,100514.11
2018-05-16T01:47:41.394Z,100523.02
2018-05-16T01:48:43.896Z,100516.48
2018-05-16T01:49:46.369Z,100513.12
2018-05-16T01:50:48.854Z,100517.28
2018-05-16T01:51:51.349Z,100516.70
2018-05-16T01:52:53.836Z,100523.23
2018-05-16T01:53:56.346Z,100526.41
2018-05-16T01:54:58.865Z,100530.34
2018-05-16T01:56:01.342Z,100529.77
2018-05-16T01:57:03.861Z,100525.02
2018-05-16T01:58:06.354Z,100523.05
2018-05-16T01:59:08.871Z,100513.35
2018-05-16T02:00:11.349Z,100506.82
2018-05-16T02:01:13.822Z,100523.64
2018-05-16T02:02:16.320Z,100518.49
2018-05-16T02:03:18.839Z,100515.09
2018-05-16T02:04:21.357Z,100509.95
2018-05-16T02:05:23.845Z,100510.13
2018-05-16T02:06:26.335Z,100513.71
2018-05-16T02:07:28.821Z,100510.50
2018-05-16T02:08:31.339Z,100519.22
2018-05-16T02:09:33.872Z,100518.23
2018-05-16T02:10:36.367Z,100510.72
2018-05-16T02:11:38.857Z,100511.48
2018-05-16T02:12:41.363Z,100515.23
2018-05-16T02:13:43.848Z,100509.88
2018-05-16T02:14:46.339Z,100507.91
2018-05-16T02:15:48.832Z,100495.21
2018-05-16T02:16:51.336Z,100489.05
2018-05-16T02:17:53.851Z,100493.78
2018-05-16T02:18:56.375Z,100496.73
2018-05-16T02:19:58.889Z,100496.08
2018-05-16T02:21:01.380Z,100500.02
2018-05-16T02:22:03.897Z,100499.39
2018-05-16T02:23:06.371Z,100504.54
2018-05-16T02:24:08.881Z,100496.00
2018-05-16T02:25:11.410Z,100498.13
2018-05-16T02:26:13.882Z,100492.17
2018-05-16T02:27:16.377Z,100498.08
2018-05-16T02:28:18.886Z,100493.92
2018-05-16T02:29:21.377Z,100481.63
2018-05-16T02:30:23.876Z,100479.84
2018-05-16T02:31:26.360Z,100482.39
2018-05-16T02:32:28.830Z,100474.87
2018-05-16T02:33:31.302Z,100478.23
2018-05-16T02:34:33.804Z,100483.38
2018-05-16T02:35:36.318Z,100483.55
2018-05-16T02:36:38.824Z,100490.48
2018-05-16T02:37:41.293Z,100491.06
2018-05-16T02:38:43.770Z,100489.28
2018-05-16T02:39:46.243Z,100482.34
2018-05-16T02:40:48.733Z,100479.58
2018-05-16T02:41:51.252Z,100478.19
2018-05-16T02:42:53.763Z,100479.40
2018-05-16T02:43:56.244Z,100470.69
2018-05-16T02:44:58.752Z,100475.83
2018-05-16T02:46:01.288Z,100467.33
2018-05-16T02:47:03.763Z,100465.18
2018-05-16T02:48:06.272Z,100469.16
2018-05-16T02:49:08.791Z,100473.72
2018-05-16T02:50:11.277Z,100469.38
2018-05-16T02:51:13.856Z,100461.28
2018-05-16T02:52:16.368Z,100460.95
2018-05-16T02:53:18.857Z,100468.69
2018-05-16T02:54:21.379Z,100467.87
2018-05-16T02:55:23.866Z,100465.73
2018-05-16T02:56:26.449Z,100459.61
2018-05-16T02:57:28.877Z,100463.36
2018-05-16T02:58:31.369Z,100461.80
2018-05-16T02:59:33.899Z,100467.92
2018-05-16T03:00:36.372Z,100461.58
2018-05-16T03:01:39.380Z,100464.75
2018-05-16T03:02:42.350Z,100469.12
2018-05-16T03:03:44.937Z,100465.16
2018-05-16T03:04:47.767Z,100468.33
2018-05-16T03:05:50.324Z,100466.72
2018-05-16T03:06:53.210Z,100464.93
2018-05-16T03:07:55.769Z,100467.70
2018-05-16T03:08:59.231Z,100470.70
2018-05-16T03:10:01.726Z,100468.50
2018-05-16T03:11:04.237Z,100467.52
2018-05-16T03:12:06.750Z,100468.33
2018-05-16T03:13:09.227Z,100473.28
2018-05-16T03:14:11.714Z,100468.33
2018-05-16T03:15:14.212Z,100465.95
2018-05-16T03:16:16.703Z,100469.53
2018-05-16T03:17:19.213Z,100468.36
2018-05-16T03:18:21.705Z,100478.06
2018-05-16T03:19:24.178Z,100474.74
2018-05-16T03:20:26.684Z,100474.89
2018-05-16T03:21:29.187Z,100478.25
2018-05-16T03:22:31.697Z,100475.08
2018-05-16T03:23:34.208Z,100478.42
2018-05-16T03:24:36.682Z,100479.01
2018-05-16T03:25:39.176Z,100474.05
2018-05-16T03:26:41.673Z,100480.76
2018-05-16T03:27:44.180Z,100480.36
2018-05-16T03:28:46.698Z,100485.24
2018-05-16T03:29:49.204Z,100480.28
2018-05-16T03:30:51.704Z,100482.44
2018-05-16T03:31:54.192Z,100481.23
2018-05-16T03:32:56.720Z,100481.81
2018-05-16T03:33:59.216Z,100478.81
2018-05-16T03:35:01.725Z,100481.77
2018-05-16T03:36:04.228Z,100479.58
2018-05-16T03:37:06.718Z,100486.11
2018-05-16T03:38:09.221Z,100492.63
2018-05-16T03:39:11.727Z,100482.94
2018-05-16T03:40:14.225Z,100485.30
2018-05-16T03:41:16.721Z,100499.74
2018-05-16T03:42:19.195Z,100495.00
2018-05-16T03:43:21.708Z,100494.42
2018-05-16T03:44:24.183Z,100493.22
2018-05-16T03:45:26.650Z,100496.39
2018-05-16T03:46:29.141Z,100499.97
2018-05-16T03:47:31.627Z,100505.10
2018-05-16T03:48:34.142Z,100501.35
2018-05-16T03:49:36.654Z,100500.73
2018-05-16T03:50:39.149Z,100504.48
2018-05-16T03:51:41.629Z,100503.09
2018-05-16T03:52:44.136Z,100504.08
2018-05-16T03:53:46.675Z,100501.09
2018-05-16T03:54:49.165Z,100499.30
2018-05-16T03:55:51.635Z,100500.86
2018-05-16T03:56:54.133Z,100504.04
2018-05-16T03:58:17.300Z,100502.88
2018-05-16T03:59:31.691Z,100502.11
2018-05-16T04:00:46.060Z,100493.98
2018-05-16T04:02:00.257Z,100504.08
2018-05-16T04:03:14.546Z,100505.06
2018-05-16T04:04:17.797Z,100503.67
2018-05-16T04:05:20.322Z,100511.01
2018-05-16T04:06:22.839Z,100503.05
2018-05-16T04:07:25.314Z,100510.16
2018-05-16T04:08:27.809Z,100506.98
2018-05-16T04:09:30.301Z,100514.32
2018-05-16T04:10:32.827Z,100514.09
2018-05-16T04:11:35.356Z,100516.69
2018-05-16T04:12:37.845Z,100516.69
2018-05-16T04:13:40.347Z,100510.16
2018-05-16T04:14:42.836Z,100513.92
2018-05-16T04:15:45.348Z,100521.87
2018-05-16T04:16:47.867Z,100521.06
2018-05-16T04:17:50.361Z,100525.63
2018-05-16T04:18:52.863Z,100527.59
2018-05-16T04:19:55.346Z,100532.16
2018-05-16T04:20:57.867Z,100534.92
2018-05-16T04:22:00.370Z,100535.33
2018-05-16T04:23:02.876Z,100533.94
2018-05-16T04:24:05.395Z,100538.50
2018-05-16T04:25:07.868Z,100544.05
2018-05-16T04:26:10.380Z,100548.02
2018-05-16T04:27:12.864Z,100546.23
2018-05-16T04:28:15.379Z,100543.06
2018-05-16T04:29:17.851Z,100545.25
2018-05-16T04:30:20.362Z,100541.67
2018-05-16T04:31:22.866Z,100545.83
2018-05-16T04:32:25.397Z,100547.22
2018-05-16T04:33:27.919Z,100545.61
2018-05-16T04:34:30.440Z,100546.63
2018-05-16T04:35:32.958Z,100549.63
2018-05-16T04:36:35.470Z,100549.05
2018-05-16T04:37:37.970Z,100548.69
2018-05-16T04:38:40.641Z,100546.50
2018-05-16T04:39:43.181Z,100554.41
2018-05-16T04:40:45.650Z,100544.48
2018-05-16T04:41:48.153Z,100545.42
2018-05-16T04:42:50.667Z,100549.72
2018-05-16T04:43:53.164Z,100554.16
2018-05-16T04:44:55.661Z,100553.09
2018-05-16T04:45:58.182Z,100553.00
2018-05-16T04:47:00.694Z,100558.23
2018-05-16T04:48:03.188Z,100553.81
2018-05-16T04:49:05.694Z,100555.08
2018-05-16T04:50:08.199Z,100549.84
2018-05-16T04:51:10.701Z,100552.97
2018-05-16T04:52:13.198Z,100553.91
2018-05-16T04:53:15.715Z,100553.06
2018-05-16T04:54:18.228Z,100556.19
2018-05-16T04:55:20.721Z,100558.70
2018-05-16T04:56:23.208Z,100554.10
2018-05-16T04:57:25.759Z,100557.05
2018-05-16T04:58:28.231Z,100559.59
2018-05-16T04:59:30.719Z,100555.17
2018-05-16T05:00:33.275Z,100557.54
2018-05-16T05:01:35.794Z,100557.84
2018-05-16T05:02:38.309Z,100557.22
2018-05-16T05:03:40.804Z,100558.16
2018-05-16T05:04:43.313Z,100559.31
2018-05-16T05:05:45.805Z,100560.05
2018-05-16T05:06:48.344Z,100563.57
2018-05-16T05:07:50.857Z,100560.98
2018-05-16T05:08:53.362Z,100557.98
2018-05-16T05:09:55.957Z,100564.50
2018-05-16T05:10:58.491Z,100558.73
2018-05-16T05:12:00.967Z,100562.09
2018-05-16T05:13:03.491Z,100561.86
2018-05-16T05:14:06.008Z,100560.84
2018-05-16T05:15:08.499Z,100562.22
2018-05-16T05:16:11.140Z,100562.77
2018-05-16T05:17:13.612Z,100564.73
2018-05-16T05:18:16.209Z,100565.80
2018-05-16T05:19:18.643Z,100562.72
2018-05-16T05:20:21.131Z,100567.23
2018-05-16T05:21:23.629Z,100571.56
2018-05-16T05:22:26.147Z,100562.37
2018-05-16T05:23:28.664Z,100568.70
2018-05-16T05:24:31.162Z,100567.28
2018-05-16T05:25:33.643Z,100570.40
2018-05-16T05:26:36.143Z,100571.11
2018-05-16T05:27:38.643Z,100573.60
2018-05-16T05:28:41.274Z,100576.67
2018-05-16T05:29:43.779Z,100579.72
2018-05-16T05:30:46.255Z,100567.56
2018-05-16T05:31:48.764Z,100571.44
2018-05-16T05:32:51.317Z,100576.30
2018-05-16T05:33:53.814Z,100579.99
2018-05-16T05:34:56.309Z,100573.20
2018-05-16T05:35:58.881Z,100578.25
2018-05-16T05:37:01.392Z,100578.20
2018-05-16T05:38:03.899Z,100575.20
2018-05-16T05:39:06.426Z,100582.25
2018-05-16T05:40:08.921Z,100585.54
2018-05-16T05:41:11.431Z,100586.88
2018-05-16T05:42:13.948Z,100582.67
2018-05-16T05:43:16.522Z,100587.98
2018-05-16T05:44:19.000Z,100576.83
2018-05-16T05:45:21.498Z,100577.81
2018-05-16T05:46:24.003Z,100578.56
2018-05-16T05:47:26.804Z,100579.55
2018-05-16T05:48:29.293Z,100571.42
2018-05-16T05:49:31.800Z,100572.17
2018-05-16T05:50:34.315Z,100574.13
2018-05-16T05:51:36.835Z,100579.48
2018-05-16T05:52:39.325Z,100574.94
2018-05-16T05:53:41.817Z,100579.66
2018-05-16T05:54:44.424Z,100578.05
2018-05-16T05:55:46.928Z,100576.84
2018-05-16T05:56:49.451Z,100579.38
2018-05-16T05:57:51.945Z,100579.16
2018-05-16T05:58:54.438Z,100577.95
2018-05-16T05:59:56.978Z,100579.11
2018-05-16T06:00:59.444Z,100581.23
2018-05-16T06:02:01.943Z,100574.27
2018-05-16T06:03:04.455Z,100579.41
2018-05-16T06:04:06.984Z,100574.99
2018-05-16T06:05:09.474Z,100578.92
2018-05-16T06:06:11.989Z,100582.03
2018-05-16T06:07:14.462Z,100577.25
2018-05-16T06:08:16.945Z,100584.92
2018-05-16T06:09:19.476Z,100586.48
2018-05-16T06:10:21.976Z,100588.61
2018-05-16T06:11:24.474Z,100589.19
2018-05-16T06:12:26.983Z,100587.00
2018-05-16T06:13:29.474Z,100590.34
2018-05-16T06:14:31.976Z,100593.59
2018-05-16T06:15:34.474Z,100590.61
2018-05-16T06:16:36.968Z,100594.70
2018-05-16T06:17:39.448Z,100590.64
2018-05-16T06:18:41.959Z,100597.16
2018-05-16T06:19:44.553Z,100594.56
2018-05-16T06:20:47.037Z,100596.12
2018-05-16T06:21:49.530Z,100594.73
2018-05-16T06:22:52.180Z,100594.10
2018-05-16T06:23:54.651Z,100604.19
2018-05-16T06:24:57.174Z,100599.23
2018-05-16T06:25:59.674Z,100604.36
2018-05-16T06:27:02.202Z,100601.19
2018-05-16T06:28:04.678Z,100601.36
2018-05-16T06:29:07.177Z,100600.16
2018-05-16T06:30:09.706Z,100606.84
2018-05-16T06:31:12.211Z,100610.41
2018-05-16T06:32:14.720Z,100606.72
2018-05-16T06:33:17.213Z,100612.94
2018-05-16T06:34:19.715Z,100610.48
2018-05-16T06:35:22.206Z,100609.22
2018-05-16T06:36:24.692Z,100606.77
2018-05-16T06:37:27.176Z,100599.55
2018-05-16T06:38:29.677Z,100604.38
2018-05-16T06:39:32.163Z,100598.77
2018-05-16T06:40:34.703Z,100594.50
2018-05-16T06:41:37.206Z,100595.75
2018-05-16T06:42:39.724Z,100599.20
2018-05-16T06:43:42.225Z,100596.89
2018-05-16T06:44:44.724Z,100600.34
2018-05-16T06:45:47.248Z,100599.05
2018-05-16T06:46:49.776Z,100591.20
2018-05-16T06:47:52.270Z,100595.00
2018-05-16T06:48:54.760Z,100594.47
2018-05-16T06:49:57.256Z,100593.72
2018-05-16T06:50:59.754Z,100595.16
2018-05-16T06:52:02.251Z,100599.13
2018-05-16T06:53:04.732Z,100596.98
2018-05-16T06:54:07.253Z,100599.00
2018-05-16T06:55:09.738Z,100598.25
2018-05-16T06:56:12.247Z,100599.31
2018-05-16T06:57:14.723Z,100602.70
2018-05-16T06:58:17.346Z,100606.28
2018-05-16T06:59:19.849Z,100602.36
2018-05-16T07:00:22.337Z,100600.97
2018-05-16T07:01:24.883Z,100598.84
2018-05-16T07:02:27.382Z,100596.47
2018-05-16T07:03:29.915Z,100599.47
2018-05-16T07:04:32.390Z,100600.09
2018-05-16T07:05:34.871Z,100597.95
2018-05-16T07:06:37.364Z,100595.41
2018-05-16T07:07:39.862Z,100601.41
2018-05-16T07:08:42.380Z,100607.75
2018-05-16T07:09:44.872Z,100606.41
2018-05-16T07:10:47.342Z,100601.68
2018-05-16T07:11:49.868Z,100603.32
2018-05-16T07:12:52.380Z,100616.58
2018-05-16T07:13:54.877Z,100614.39
2018-05-16T07:14:57.393Z,100617.21
2018-05-16T07:15:59.945Z,100618.59
2018-05-16T07:17:02.454Z,100621.19
2018-05-16T07:18:04.964Z,100629.31
2018-05-16T07:19:07.468Z,100623.20
2018-05-16T07:20:09.944Z,100628.97
2018-05-16T07:21:12.432Z,100625.97
2018-05-16T07:22:14.941Z,100620.48
2018-05-16T07:23:17.447Z,100623.03
2018-05-16T07:24:19.948Z,100626.77
2018-05-16T07:25:22.431Z,100625.74
2018-05-16T07:26:24.920Z,100625.74
2018-05-16T07:27:27.420Z,100627.70
2018-05-16T07:28:29.898Z,100628.69
2018-05-16T07:29:32.402Z,100630.25
2018-05-16T07:30:34.905Z,100636.77
2018-05-16T07:31:37.378Z,100634.40
2018-05-16T07:32:39.866Z,100629.04
2018-05-16T07:33:42.341Z,100623.68
2018-05-16T07:34:44.856Z,100628.41
2018-05-16T07:35:47.331Z,100619.67
2018-05-16T07:36:49.826Z,100630.47
2018-05-16T07:37:52.328Z,100628.06
2018-05-16T07:38:54.835Z,100627.08
2018-05-16T07:39:57.339Z,100628.46
2018-05-16T07:40:59.839Z,100631.62
2018-05-16T07:42:02.350Z,100630.83
2018-05-16T07:43:04.869Z,100629.84
2018-05-16T07:44:07.342Z,100623.73
2018-05-16T07:45:09.833Z,100629.67
2018-05-16T07:46:12.302Z,100624.13
2018-05-16T07:47:14.771Z,100624.53
2018-05-16T07:48:17.273Z,100625.92
2018-05-16T07:49:19.742Z,100627.13
2018-05-16T07:50:22.236Z,100628.52
2018-05-16T07:51:24.753Z,100626.14
2018-05-16T07:52:27.264Z,100630.30
2018-05-16T07:53:29.758Z,100624.19
2018-05-16T07:54:32.227Z,100632.89
2018-05-16T07:55:34.726Z,100625.39
2018-05-16T07:56:37.233Z,100628.97
2018-05-16T07:57:39.706Z,100634.50
2018-05-16T07:58:42.231Z,100627.58
2018-05-16T07:59:44.737Z,100630.17
2018-05-16T08:00:47.256Z,100636.11
2018-05-16T08:01:49.740Z,100634.33
2018-05-16T08:02:52.237Z,100633.92
2018-05-16T08:03:54.768Z,100630.98
2018-05-16T08:04:57.257Z,100629.41
2018-05-16T08:05:59.745Z,100626.65
2018-05-16T08:07:02.232Z,100639.11
2018-05-16T08:08:04.709Z,100633.97
2018-05-16T08:09:07.194Z,100633.56
2018-05-16T08:10:09.703Z,100635.94
2018-05-16T08:11:12.197Z,100633.39
2018-05-16T08:12:14.729Z,100634.38
2018-05-16T08:13:17.214Z,100637.55
2018-05-16T08:14:19.740Z,100635.18
2018-05-16T08:15:22.232Z,100636.16
2018-05-16T08:16:24.749Z,100635.98
2018-05-16T08:17:27.292Z,100637.37
2018-05-16T08:18:29.804Z,100631.03
2018-05-16T08:19:32.413Z,100631.84
2018-05-16T08:20:34.886Z,100635.41
2018-05-16T08:21:37.388Z,100641.75
2018-05-16T08:22:39.882Z,100634.02
2018-05-16T08:23:42.394Z,100634.66
2018-05-16T08:24:44.937Z,100637.02
2018-05-16T08:25:47.426Z,100637.02
2018-05-16T08:26:49.903Z,100638.80
2018-05-16T08:27:52.396Z,100636.84
2018-05-16T08:28:54.896Z,100639.20
2018-05-16T08:29:57.411Z,100641.00
2018-05-16T08:30:59.976Z,100642.38
2018-05-16T08:32:02.467Z,100636.62
2018-05-16T08:33:04.957Z,100640.59
2018-05-16T08:34:07.478Z,100641.75
2018-05-16T08:35:09.987Z,100644.52
2018-05-16T08:36:12.463Z,100639.16
2018-05-16T08:37:14.937Z,100643.14
2018-05-16T08:38:17.435Z,100639.56
2018-05-16T08:39:19.906Z,100643.31
2018-05-16T08:40:22.400Z,100646.83
2018-05-16T08:41:24.878Z,100643.66
2018-05-16T08:42:27.365Z,100649.20
2018-05-16T08:43:29.860Z,100638.93
2018-05-16T08:44:32.354Z,100643.08
2018-05-16T08:45:34.869Z,100642.86
2018-05-16T08:46:37.379Z,100636.92
2018-05-16T08:47:39.887Z,100644.23
2018-05-16T08:48:42.388Z,100647.41
2018-05-16T08:49:44.954Z,100637.32
2018-05-16T08:50:47.498Z,100641.47
2018-05-16T08:51:50.008Z,100644.82
2018-05-16T08:52:52.601Z,100639.28
2018-05-16T08:53:55.153Z,100641.47
2018-05-16T08:54:57.589Z,100643.84
2018-05-16T08:56:00.119Z,100644.23
2018-05-16T08:57:02.734Z,100642.45
2018-05-16T08:58:05.252Z,100635.33
2018-05-16T08:59:07.744Z,100640.47
2018-05-16T09:00:10.237Z,100645.02
2018-05-16T09:01:12.817Z,100639.48
2018-05-16T09:02:15.246Z,100637.70
2018-05-16T09:03:17.764Z,100643.06
2018-05-16T09:04:20.243Z,100639.48
2018-05-16T09:05:22.733Z,100645.83
2018-05-16T09:06:25.234Z,100644.04
2018-05-16T09:07:27.741Z,100642.52
2018-05-16T09:08:30.238Z,100644.30
2018-05-16T09:09:32.770Z,100641.67
2018-05-16T09:10:35.276Z,100649.00
2018-05-16T09:11:37.814Z,100649.84
2018-05-16T09:12:40.321Z,100649.44
2018-05-16T09:13:42.841Z,100652.20
2018-05-16T09:14:45.328Z,100657.16
2018-05-16T09:15:47.810Z,100660.91
2018-05-16T09:16:50.307Z,100655.52
2018-05-16T09:17:52.797Z,100661.63
2018-05-16T09:18:55.293Z,100659.27
2018-05-16T09:19:57.783Z,100656.91
2018-05-16T09:21:00.265Z,100658.69
2018-05-16T09:22:02.785Z,100659.67
2018-05-16T09:23:05.402Z,100660.91
2018-05-16T09:24:07.905Z,100667.43
2018-05-16T09:25:10.498Z,100666.45
2018-05-16T09:26:12.947Z,100665.47
2018-05-16T09:27:15.463Z,100660.91
2018-05-16T09:28:17.935Z,100663.09
2018-05-16T09:29:20.413Z,100668.06
2018-05-16T09:30:23.061Z,100668.86
2018-05-16T09:31:25.530Z,100662.12
2018-05-16T09:32:28.036Z,100672.44
2018-05-16T09:33:30.517Z,100665.92
2018-05-16T09:34:33.025Z,100667.70
2018-05-16T09:35:35.532Z,100663.78
2018-05-16T09:36:38.039Z,100663.20
2018-05-16T09:37:40.725Z,100667.53
2018-05-16T09:38:43.425Z,100661.81
2018-05-16T09:39:46.056Z,100663.42
2018-05-16T09:40:48.559Z,100666.59
2018-05-16T09:41:51.072Z,100663.69
2018-05-16T09:42:53.593Z,100658.38
2018-05-16T09:43:56.065Z,100660.97
2018-05-16T09:44:58.717Z,100661.95
2018-05-16T09:46:01.236Z,100662.75
2018-05-16T09:47:03.720Z,100662.93
2018-05-16T09:48:06.245Z,100665.52
2018-05-16T09:49:08.755Z,100659.81
2018-05-16T09:50:11.235Z,100662.17
2018-05-16T09:51:13.744Z,100655.66
2018-05-16T09:52:16.239Z,100657.84
2018-05-16T09:53:18.761Z,100653.69
2018-05-16T09:54:21.268Z,100651.91
2018-05-16T09:55:25.599Z,100648.55
2018-05-16T09:56:28.115Z,100660.03
2018-05-16T09:57:30.591Z,100654.32
2018-05-16T09:58:33.110Z,100661.02
2018-05-16T09:59:35.609Z,100659.23
2018-05-16T10:00:38.115Z,100661.82
2018-05-16T10:01:40.637Z,100669.33
2018-05-16T10:02:43.210Z,100672.27
2018-05-16T10:03:45.670Z,100667.31
2018-05-16T10:04:48.161Z,100670.25
2018-05-16T10:05:50.639Z,100668.64
2018-05-16T10:06:53.133Z,100670.20
2018-05-16T10:07:55.609Z,100665.22
2018-05-16T10:08:58.127Z,100671.33
2018-05-16T10:10:00.603Z,100673.30
2018-05-16T10:11:03.102Z,100674.86
2018-05-16T10:12:05.607Z,100680.80
2018-05-16T10:13:08.101Z,100682.18
2018-05-16T10:14:10.609Z,100688.12
2018-05-16T10:15:13.108Z,100684.14
2018-05-16T10:16:15.636Z,100695.39
2018-05-16T10:17:18.129Z,100687.48
2018-05-16T10:18:20.644Z,100689.23
2018-05-16T10:19:23.138Z,100687.84
2018-05-16T10:20:25.756Z,100690.78
2018-05-16T10:21:28.264Z,100691.77
2018-05-16T10:22:30.752Z,100693.15
2018-05-16T10:23:33.260Z,100693.30
2018-05-16T10:24:35.766Z,100690.30
2018-05-16T10:25:38.270Z,100691.69
2018-05-16T10:26:40.776Z,100683.55
2018-05-16T10:27:43.283Z,100691.05
2018-05-16T10:28:45.792Z,100684.71
2018-05-16T10:29:48.386Z,100685.29
2018-05-16T10:30:50.878Z,100693.42
2018-05-16T10:31:53.387Z,100695.20
2018-05-16T10:32:55.866Z,100701.73
2018-05-16T10:33:58.338Z,100702.70
2018-05-16T10:35:00.861Z,100692.44
2018-05-16T10:36:03.380Z,100690.87
2018-05-16T10:37:05.876Z,100695.26
2018-05-16T10:38:08.362Z,100699.27
2018-05-16T10:39:10.845Z,100690.78
2018-05-16T10:40:13.389Z,100694.53
2018-05-16T10:41:15.887Z,100689.80
2018-05-16T10:42:18.392Z,100691.59
2018-05-16T10:43:20.893Z,100691.02
2018-05-16T10:44:23.396Z,100693.78
2018-05-16T10:45:25.929Z,100694.19
2018-05-16T10:46:28.406Z,100692.80
2018-05-16T10:47:30.886Z,100688.06
2018-05-16T10:48:33.375Z,100692.22
2018-05-16T10:49:35.881Z,100689.05
2018-05-16T10:50:38.392Z,100691.02
2018-05-16T10:51:40.869Z,100693.20
2018-05-16T10:52:43.408Z,100690.20
2018-05-16T10:53:45.924Z,100698.74
2018-05-16T10:54:48.420Z,100693.61
2018-05-16T10:55:50.955Z,100697.36
2018-05-16T10:56:53.444Z,100697.36
2018-05-16T10:57:55.957Z,100695.80
2018-05-16T10:58:58.432Z,100692.62
2018-05-16T11:00:00.907Z,100688.88
2018-05-16T11:01:03.427Z,100694.41
2018-05-16T11:02:05.913Z,100684.72
2018-05-16T11:03:08.427Z,100688.70
2018-05-16T11:04:10.928Z,100691.06
2018-05-16T11:05:13.425Z,100688.12
2018-05-16T11:06:15.922Z,100688.92
2018-05-16T11:07:18.433Z,100686.16
2018-05-16T11:08:20.944Z,100690.31
2018-05-16T11:09:23.449Z,100688.92
2018-05-16T11:10:25.967Z,100699.02
2018-05-16T11:11:28.465Z,100694.47
2018-05-16T11:12:30.975Z,100696.51
2018-05-16T11:13:33.515Z,100692.76
2018-05-16T11:14:36.014Z,100699.10
2018-05-16T11:15:38.517Z,100701.87
2018-05-16T11:16:41.034Z,100698.52
2018-05-16T11:17:43.525Z,100699.10
2018-05-16T11:18:46.027Z,100703.66
2018-05-16T11:19:48.529Z,100696.16
2018-05-16T11:20:51.025Z,100690.22
2018-05-16T11:21:53.545Z,100689.23
2018-05-16T11:22:56.031Z,100693.21
2018-05-16T11:23:58.534Z,100687.27
2018-05-16T11:25:01.021Z,100687.50
2018-05-16T11:26:03.500Z,100689.69
2018-05-16T11:27:06.010Z,100686.11
2018-05-16T11:28:08.520Z,100682.36
2018-05-16T11:29:11.028Z,100688.30
2018-05-16T11:30:13.514Z,100684.55
2018-05-16T11:31:15.998Z,100683.39
2018-05-16T11:32:18.532Z,100685.36
2018-05-16T11:33:21.035Z,100682.81
2018-05-16T11:34:23.537Z,100678.44
2018-05-16T11:35:26.025Z,100681.03
2018-05-16T11:36:28.536Z,100678.27
2018-05-16T11:37:31.065Z,100686.97
2018-05-16T11:38:33.557Z,100687.15
2018-05-16T11:39:36.034Z,100687.95
2018-05-16T11:40:38.536Z,100682.99
2018-05-16T11:41:41.047Z,100692.69
2018-05-16T11:42:43.579Z,100688.13
2018-05-16T11:43:46.098Z,100690.49
2018-05-16T11:44:48.607Z,100681.61
2018-05-16T11:45:51.116Z,100690.90
2018-05-16T11:46:53.645Z,100693.09
2018-05-16T11:47:56.145Z,100691.13
2018-05-16T11:48:58.645Z,100694.30
2018-05-16T11:50:01.149Z,100689.16
2018-05-16T11:51:03.618Z,100694.70
2018-05-16T11:52:06.129Z,100698.27
2018-05-16T11:53:08.626Z,100695.73
2018-05-16T11:54:11.117Z,100695.33